Time;durP1;ratioP1;P1;durP2;ratioP2;P2;SDS_P1;SDS_P2;PMS_P1;PMS_P2;Temp;Humidity;BMP_temperature;BMP_pressure;BME280_temperature;BME280_humidity;BME280_pressure;Samples;Min_cycle;Max_cycle;Signal;HPM_P1;HPM_P2
2023/04/02 00:01:00;;;;;;;9.75;8.95;;;;;;;5.96;100.00;100895.81;4949877;28;20039;-73
2023/04/02 00:03:52;;;;;;;9.68;8.88;;;;;;;5.96;100.00;100906.97;4949957;28;20544;-73
2023/04/02 00:06:32;;;;;;;9.52;8.73;;;;;;;5.93;100.00;100909.41;4957414;28;20526;-72
2023/04/02 00:09:03;;;;;;;9.65;8.85;;;;;;;5.94;100.00;100918.88;4952929;28;20031;-73
2023/04/02 00:11:32;;;;;;;9.27;8.48;;;;;;;5.96;100.00;100918.94;4949910;28;20031;-73
2023/04/02 00:14:00;;;;;;;10.00;8.90;;;;;;;5.96;100.00;100925.00;4949271;28;20459;-73
2023/04/02 00:16:27;;;;;;;9.60;8.80;;;;;;;5.94;100.00;100925.69;4950524;28;20480;-73
2023/04/02 00:18:56;;;;;;;10.60;9.60;;;;;;;5.94;100.00;100931.75;4963509;28;20523;-73
2023/04/02 00:21:26;;;;;;;9.85;8.98;;;;;;;5.92;100.00;100930.78;4950275;28;20131;-73
2023/04/02 00:23:57;;;;;;;9.80;9.00;;;;;;;5.93;100.00;100932.56;4980853;28;20089;-73
2023/04/02 00:26:30;;;;;;;10.45;9.55;;;;;;;5.94;100.00;100930.84;4953268;28;20031;-73
2023/04/02 00:28:58;;;;;;;12.32;10.77;;;;;;;5.94;100.00;100944.59;4983789;28;20047;-73
2023/04/02 00:31:24;;;;;;;10.35;9.50;;;;;;;5.93;100.00;100945.41;4971779;28;20023;-73
2023/04/02 00:33:51;;;;;;;11.00;10.07;;;;;;;5.93;100.00;100948.00;4990266;28;20714;-73
2023/04/02 00:36:20;;;;;;;10.90;10.00;;;;;;;5.94;100.00;100954.00;4976186;28;20066;-72
2023/04/02 00:38:46;;;;;;;12.02;11.00;;;;;;;5.94;100.00;100951.41;4965937;28;20034;-72
2023/04/02 00:41:26;;;;;;;11.02;9.93;;;;;;;5.92;100.00;100961.63;4977146;28;20142;-73
2023/04/02 00:43:52;;;;;;;11.02;10.02;;;;;;;5.85;100.00;100964.69;4972088;28;20037;-72
2023/04/02 00:46:26;;;;;;;12.82;11.68;;;;;;;5.85;100.00;100980.13;4961142;28;20567;-73
2023/04/02 00:49:13;;;;;;;11.55;10.45;;;;;;;5.82;100.00;100973.13;4980856;28;20030;-73
2023/04/02 00:51:48;;;;;;;10.77;9.80;;;;;;;5.81;100.00;100979.06;4965584;28;20131;-73
2023/04/02 00:54:19;;;;;;;10.75;9.85;;;;;;;5.75;100.00;100983.91;4990707;28;20022;-73
2023/04/02 00:56:46;;;;;;;;;;;;;;;5.67;100.00;100991.19;4989851;28;20446;-73
2023/04/02 00:59:31;;;;;;;11.50;9.50;;;;;;;5.66;100.00;100992.00;4961936;28;19910;-73
2023/04/02 01:02:17;;;;;;;9.63;8.73;;;;;;;5.65;100.00;100997.91;4971184;28;20024;-73
2023/04/02 01:04:55;;;;;;;10.60;9.70;;;;;;;5.65;100.00;101008.22;4953878;28;20027;-73
2023/04/02 01:07:30;;;;;;;10.32;9.40;;;;;;;5.66;100.00;101015.13;4955367;28;20114;-73
2023/04/02 01:10:38;;;;;;;10.88;9.85;;;;;;;5.64;100.00;101014.16;4982586;28;20146;-73
2023/04/02 01:13:12;;;;;;;11.55;10.45;;;;;;;5.64;100.00;101022.78;4949184;29;20054;-73
2023/04/02 01:15:42;;;;;;;10.63;9.63;;;;;;;5.60;100.00;101020.81;4979267;28;20081;-73
2023/04/02 01:18:25;;;;;;;11.50;10.50;;;;;;;5.56;100.00;101023.16;4983643;28;20041;-73
2023/04/02 01:21:01;;;;;;;11.20;10.10;;;;;;;5.55;100.00;101037.69;4969543;28;20030;-73
2023/04/02 01:23:34;;;;;;;9.68;8.68;;;;;;;5.50;100.00;101029.72;4989627;28;20542;-71
2023/04/02 01:26:14;;;;;;;8.93;8.13;;;;;;;5.48;100.00;101031.31;4951872;28;20054;-74
2023/04/02 01:28:51;;;;;;;8.77;7.97;;;;;;;5.48;100.00;101040.72;4951658;28;20069;-71
2023/04/02 01:31:17;;;;;;;9.05;8.25;;;;;;;5.47;100.00;101042.38;4962696;28;20042;-71
2023/04/02 01:33:42;;;;;;;9.70;8.70;;;;;;;5.47;100.00;101042.38;4965792;28;20050;-71
2023/04/02 01:36:23;;;;;;;10.35;9.38;;;;;;;5.46;100.00;101048.34;4950945;28;20081;-71
2023/04/02 01:39:36;;;;;;;11.15;10.07;;;;;;;5.46;100.00;101056.06;4951140;28;20054;-72
2023/04/02 01:42:21;;;;;;;10.95;9.85;;;;;;;5.47;100.00;101055.25;4958085;28;20038;-72
2023/04/02 01:44:51;;;;;;;12.95;11.05;;;;;;;5.47;100.00;101073.22;4982818;28;20041;-72
2023/04/02 01:47:21;;;;;;;12.85;11.60;;;;;;;5.45;100.00;101066.25;4970603;28;20026;-72
2023/04/02 01:49:46;;;;;;;12.73;11.40;;;;;;;5.41;100.00;101067.75;4965882;28;20105;-72
2023/04/02 01:52:18;;;;;;;12.35;11.30;;;;;;;5.39;100.00;101077.06;4951654;28;20606;-72
2023/04/02 01:54:46;;;;;;;12.25;11.05;;;;;;;5.35;100.00;101085.38;4964544;28;20507;-72
2023/04/02 01:57:11;;;;;;;11.80;10.63;;;;;;;5.29;100.00;101091.94;4951435;28;20030;-72
2023/04/02 01:59:37;;;;;;;11.32;10.32;;;;;;;5.28;100.00;101095.34;4951228;28;20027;-72
2023/04/02 02:02:05;;;;;;;11.60;10.43;;;;;;;5.28;100.00;101105.59;4951405;28;20086;-72
2023/04/02 02:04:31;;;;;;;10.52;9.57;;;;;;;5.24;100.00;101098.50;4957696;28;20026;-72
2023/04/02 02:06:59;;;;;;;9.52;8.73;;;;;;;5.21;100.00;101103.47;4970812;28;20027;-71
2023/04/02 02:09:28;;;;;;;9.77;8.77;;;;;;;5.21;100.00;101108.63;4951584;28;20388;-72
2023/04/02 02:11:56;;;;;;;9.63;8.73;;;;;;;5.20;100.00;101103.41;4953757;28;20031;-72
2023/04/02 02:14:24;;;;;;;9.40;8.48;;;;;;;5.17;100.00;101109.22;4962476;28;20279;-72
2023/04/02 02:16:52;;;;;;;9.52;8.70;;;;;;;5.16;100.00;101113.47;4953471;28;20038;-72
2023/04/02 02:19:42;;;;;;;9.38;8.48;;;;;;;5.13;100.00;101120.09;4960960;28;20030;-72
2023/04/02 02:22:11;;;;;;;8.35;7.63;;;;;;;5.10;100.00;101125.97;4964909;28;20090;-72
2023/04/02 02:24:37;;;;;;;9.30;7.53;;;;;;;5.10;100.00;101135.34;4974593;28;20023;-72
2023/04/02 02:27:24;;;;;;;8.02;7.22;;;;;;;5.05;100.00;101132.53;4984856;28;20022;-72
2023/04/02 02:29:54;;;;;;;8.35;7.55;;;;;;;5.03;100.00;101145.28;4988346;28;20030;-72
2023/04/02 02:32:22;;;;;;;7.15;6.55;;;;;;;5.02;100.00;101143.50;4988884;28;20045;-72
2023/04/02 02:34:57;;;;;;;6.82;6.22;;;;;;;5.01;100.00;101152.00;4987663;28;20092;-72
2023/04/02 02:37:28;;;;;;;6.78;5.88;;;;;;;5.00;100.00;101149.34;4988914;28;20360;-72
2023/04/02 02:39:57;;;;;;;6.72;6.05;;;;;;;4.98;100.00;101166.34;4987935;28;20030;-72
2023/04/02 02:42:26;;;;;;;6.13;5.55;;;;;;;4.95;100.00;101171.31;4979146;28;20023;-72
2023/04/02 02:44:54;;;;;;;6.50;6.00;;;;;;;4.92;100.00;101174.56;4984968;28;20028;-72
2023/04/02 02:47:27;;;;;;;5.97;5.38;;;;;;;4.87;100.00;101173.41;4988534;28;20026;-72
2023/04/02 02:49:56;;;;;;;7.20;6.18;;;;;;;4.89;100.00;101174.38;4988573;28;20422;-72
2023/04/02 02:52:35;;;;;;;6.50;5.95;;;;;;;4.89;100.00;101182.94;4987280;28;20050;-72
2023/04/02 02:55:14;;;;;;;6.80;6.10;;;;;;;4.87;100.00;101194.84;4950325;28;20031;-72
2023/04/02 02:57:46;;;;;;;7.32;6.68;;;;;;;4.87;100.00;101193.94;4950691;28;20030;-72
2023/04/02 03:00:14;;;;;;;8.45;7.75;;;;;;;4.85;100.00;101204.13;4960482;28;20499;-71
2023/04/02 03:02:41;;;;;;;8.85;7.03;;;;;;;4.84;100.00;101197.19;4986557;28;20036;-71
2023/04/02 03:05:07;;;;;;;9.52;8.73;;;;;;;4.84;100.00;101204.03;4988276;28;20044;-72
2023/04/02 03:07:33;;;;;;;10.00;9.10;;;;;;;4.85;100.00;101200.66;4978124;28;20480;-72
2023/04/02 03:10:24;;;;;;;9.95;8.95;;;;;;;4.86;100.00;101210.13;4949400;28;20126;-72
2023/04/02 03:13:05;;;;;;;9.80;8.90;;;;;;;4.85;100.00;101216.06;4958507;28;20030;-72
2023/04/02 03:15:37;;;;;;;9.48;8.57;;;;;;;4.85;100.00;101223.78;4964697;28;20051;-72
2023/04/02 03:18:06;;;;;;;;;;;;;;;4.83;100.00;101226.25;4950440;28;20031;-72
2023/04/02 03:20:55;;;;;;;9.52;8.65;;;;;;;4.82;100.00;101233.88;4968329;28;19945;-72
2023/04/02 03:23:33;;;;;;;10.00;9.00;;;;;;;4.76;100.00;101242.06;4981050;28;20045;-72
2023/04/02 03:26:06;;;;;;;9.88;8.75;;;;;;;4.75;100.00;101243.75;4976083;28;20497;-71
2023/04/02 03:28:39;;;;;;;10.03;8.90;;;;;;;4.71;100.00;101257.19;4987499;28;20026;-71
2023/04/02 03:31:09;;;;;;;10.45;9.43;;;;;;;4.69;100.00;101262.22;4978852;28;20038;-72
2023/04/02 03:33:40;;;;;;;9.70;8.77;;;;;;;4.68;100.00;101264.69;4984686;28;20037;-72
2023/04/02 03:36:21;;;;;;;9.73;8.80;;;;;;;4.65;100.00;101274.78;4987358;28;20125;-71
2023/04/02 03:38:53;;;;;;;10.68;9.50;;;;;;;4.64;100.00;101273.00;4963132;28;20038;-71
2023/04/02 03:41:27;;;;;;;8.97;8.07;;;;;;;4.62;100.00;101280.63;4987388;28;20361;-72
2023/04/02 03:43:59;;;;;;;9.75;8.88;;;;;;;4.64;100.00;101285.84;4988159;28;20038;-72
2023/04/02 03:46:24;;;;;;;9.77;8.87;;;;;;;4.61;100.00;101293.34;4987102;28;20105;-72
2023/04/02 03:48:57;;;;;;;9.47;8.50;;;;;;;4.58;100.00;101294.03;4987559;28;20023;-71
2023/04/02 03:51:38;;;;;;;9.43;8.53;;;;;;;4.55;100.00;101309.25;4987018;28;20030;-72
2023/04/02 03:54:04;;;;;;;9.75;8.82;;;;;;;4.55;100.00;101315.25;4986695;28;20038;-71
2023/04/02 03:56:38;;;;;;;10.07;8.35;;;;;;;4.55;100.00;101320.38;4981233;28;20039;-73
2023/04/02 03:59:16;;;;;;;9.27;8.37;;;;;;;4.51;100.00;101328.72;4984839;28;20450;-72
2023/04/02 04:01:52;;;;;;;8.73;7.93;;;;;;;4.51;100.00;101325.25;4991196;28;20032;-72
2023/04/02 04:04:18;;;;;;;10.05;8.68;;;;;;;4.47;100.00;101330.97;4990320;28;20101;-72
2023/04/02 04:06:48;;;;;;;9.70;8.48;;;;;;;4.42;100.00;101331.56;4991635;28;20514;-72
2023/04/02 04:09:28;;;;;;;10.40;8.73;;;;;;;4.39;100.00;101327.91;4990166;28;20022;-72
2023/04/02 04:12:18;;;;;;;9.63;8.48;;;;;;;4.35;100.00;101343.88;4990293;28;20038;-71
2023/04/02 04:14:50;;;;;;;9.97;8.20;;;;;;;4.34;100.00;101353.25;4990156;28;20104;-72
2023/04/02 04:17:28;;;;;;;8.93;8.02;;;;;;;4.30;100.00;101354.72;4976989;28;20105;-72
2023/04/02 04:20:26;;;;;;;8.90;7.97;;;;;;;4.30;100.00;101359.84;4988857;28;20066;-72
2023/04/02 04:22:56;;;;;;;9.68;8.63;;;;;;;4.32;100.00;101378.81;4990973;28;20030;-72
2023/04/02 04:25:32;;;;;;;10.03;9.03;;;;;;;4.34;100.00;101378.91;4960543;28;20102;-72
2023/04/02 04:28:22;;;;;;;9.93;9.03;;;;;;;4.34;100.00;101381.47;4963232;28;20030;-72
2023/04/02 04:30:58;;;;;;;9.40;8.43;;;;;;;4.32;100.00;101385.63;4952961;28;20035;-71
2023/04/02 04:33:38;;;;;;;9.60;8.60;;;;;;;4.29;100.00;101391.44;4965848;28;20278;-72
2023/04/02 04:36:06;;;;;;;11.37;8.83;;;;;;;4.28;100.00;101406.75;4953275;28;20035;-72
2023/04/02 04:38:38;;;;;;;9.37;8.37;;;;;;;4.25;100.00;101406.53;4953061;28;20035;-72
2023/04/02 04:41:11;;;;;;;7.87;7.10;;;;;;;4.20;100.00;101408.78;4952521;28;20395;-72
2023/04/02 04:43:48;;;;;;;8.63;7.57;;;;;;;4.22;100.00;101419.16;4958411;28;20031;-72
2023/04/02 04:46:19;;;;;;;8.00;7.30;;;;;;;4.18;100.00;101426.66;4954496;28;20034;-72
2023/04/02 04:49:09;;;;;;;9.30;7.10;;;;;;;4.19;100.00;101430.97;4971475;28;20030;-72
2023/04/02 04:51:40;;;;;;;7.63;6.80;;;;;;;4.20;100.00;101440.47;4965281;28;20387;-71
2023/04/02 04:54:12;;;;;;;10.77;7.05;;;;;;;4.21;100.00;101443.91;4966216;28;20023;-72
2023/04/02 04:56:37;;;;;;;;;;;;;;;4.19;100.00;101456.66;4953657;28;20031;-72
2023/04/02 04:59:14;;;;;;;7.90;7.13;;;;;;;4.20;100.00;101454.97;4967142;28;19921;-72
2023/04/02 05:01:46;;;;;;;8.37;6.90;;;;;;;4.17;100.00;101462.47;4970867;28;20026;-73
2023/04/02 05:04:19;;;;;;;7.70;7.00;;;;;;;4.15;100.00;101458.91;4954735;28;20046;-72
2023/04/02 05:07:26;;;;;;;8.00;6.90;;;;;;;4.12;100.00;101472.41;4951404;28;20106;-73
2023/04/02 05:10:02;;;;;;;9.43;6.83;;;;;;;4.07;100.00;101474.66;4947492;28;20476;-72
2023/04/02 05:12:44;;;;;;;7.43;6.60;;;;;;;4.07;100.00;101484.94;4951026;28;20031;-72
2023/04/02 05:15:25;;;;;;;9.17;7.10;;;;;;;4.06;100.00;101487.38;4966032;28;20380;-72
2023/04/02 05:18:31;;;;;;;8.25;6.63;;;;;;;4.01;100.00;101494.75;4961417;28;20381;-73
2023/04/02 05:21:17;;;;;;;9.70;6.67;;;;;;;3.95;100.00;101502.03;4959330;28;20549;-72
2023/04/02 05:23:51;;;;;;;7.50;6.67;;;;;;;3.92;100.00;101500.13;4954851;28;20061;-72
2023/04/02 05:26:27;;;;;;;8.07;6.87;;;;;;;3.92;100.00;101504.38;4948411;28;20031;-72
2023/04/02 05:29:00;;;;;;;7.57;6.87;;;;;;;3.90;100.00;101508.50;4952019;28;20035;-72
2023/04/02 05:31:34;;;;;;;7.33;6.63;;;;;;;3.90;100.00;101500.81;4961676;28;20054;-72
2023/04/02 05:34:00;;;;;;;6.93;5.83;;;;;;;3.87;100.00;101513.44;4966034;28;20509;-72
2023/04/02 05:36:28;;;;;;;7.47;5.30;;;;;;;3.84;100.00;101511.53;4965781;28;20034;-72
2023/04/02 05:38:55;;;;;;;7.77;6.70;;;;;;;3.82;100.00;101528.47;4963860;28;20554;-72
2023/04/02 05:41:37;;;;;;;8.23;6.07;;;;;;;3.83;100.00;101528.59;4963715;28;20165;-72
2023/04/02 05:44:15;;;;;;;6.30;5.70;;;;;;;3.80;100.00;101536.06;4953535;28;20388;-72
2023/04/02 05:46:48;;;;;;;7.33;5.97;;;;;;;3.80;100.00;101530.94;4955032;28;20176;-72
2023/04/02 05:49:23;;;;;;;7.13;6.23;;;;;;;3.81;100.00;101542.09;4949039;28;20428;-72
2023/04/02 05:51:54;;;;;;;6.90;6.20;;;;;;;3.81;100.00;101542.97;4959836;28;20038;-72
2023/04/02 05:54:29;;;;;;;7.07;6.30;;;;;;;3.79;100.00;101546.22;4948824;28;20054;-72
2023/04/02 05:57:01;;;;;;;7.57;6.43;;;;;;;3.77;100.00;101546.13;4952418;28;20121;-72
2023/04/02 05:59:52;;;;;;;8.67;6.30;;;;;;;3.78;100.00;101563.25;4950554;28;20539;-71
2023/04/02 06:02:32;;;;;;;7.68;6.97;;;;;;;3.80;100.00;101574.53;4954375;28;20182;-71
2023/04/02 06:05:03;;;;;;;9.80;7.97;;;;;;;3.81;100.00;101576.28;4965212;28;20049;-74
2023/04/02 06:07:35;;;;;;;9.27;7.88;;;;;;;3.80;100.00;101581.31;4966544;28;20014;-75
2023/04/02 06:10:06;;;;;;;9.00;8.13;;;;;;;3.79;100.00;101590.72;4958344;28;20035;-74
2023/04/02 06:12:43;;;;;;;10.30;8.07;;;;;;;3.80;100.00;101601.84;4961485;28;20026;-72
2023/04/02 06:15:17;;;;;;;11.33;8.70;;;;;;;3.76;100.00;101593.03;4964785;28;20074;-72
2023/04/02 06:17:50;;;;;;;9.37;8.37;;;;;;;3.76;100.00;101604.97;4963553;28;20434;-71
2023/04/02 06:20:17;;;;;;;8.60;7.77;;;;;;;3.75;100.00;101613.44;4969641;28;20022;-72
2023/04/02 06:22:46;;;;;;;11.10;8.70;;;;;;;3.69;100.00;101613.88;4977871;28;20138;-72
2023/04/02 06:25:21;;;;;;;10.43;7.87;;;;;;;3.67;100.00;101621.47;4970070;28;20031;-71
2023/04/02 06:27:50;;;;;;;10.93;8.13;;;;;;;3.65;100.00;101624.72;4972763;28;20038;-72
2023/04/02 06:30:20;;;;;;;11.17;8.63;;;;;;;3.65;100.00;101634.97;4971563;28;20018;-72
2023/04/02 06:32:45;;;;;;;12.82;8.40;;;;;;;3.63;100.00;101639.09;4970109;28;20027;-72
2023/04/02 06:35:12;;;;;;;9.37;7.67;;;;;;;3.58;100.00;101642.19;4955274;28;20340;-72
2023/04/02 06:37:42;;;;;;;11.23;8.13;;;;;;;3.59;100.00;101646.56;4950044;28;20031;-71
2023/04/02 06:40:30;;;;;;;9.73;7.37;;;;;;;3.59;100.00;101654.25;4961398;28;20081;-73
2023/04/02 06:42:58;;;;;;;10.70;7.17;;;;;;;3.60;100.00;101656.00;4954037;28;20030;-72
2023/04/02 06:45:40;;;;;;;13.07;10.20;;;;;;;3.64;100.00;101663.91;4954294;28;20027;-72
2023/04/02 06:48:14;;;;;;;10.00;7.20;;;;;;;3.66;100.00;101675.19;4956830;28;20038;-72
2023/04/02 06:50:49;;;;;;;7.97;6.30;;;;;;;3.67;100.00;101666.75;4964349;28;20027;-71
2023/04/02 06:53:19;;;;;;;8.00;6.50;;;;;;;3.66;100.00;101686.34;4971013;28;20371;-72
2023/04/02 06:55:54;;;;;;;9.47;6.53;;;;;;;3.68;100.00;101691.59;4965515;28;20126;-71
2023/04/02 06:58:19;;;;;;;11.27;6.93;;;;;;;3.68;100.00;101697.59;4964681;28;20072;-70
2023/04/02 07:00:47;;;;;;;8.47;6.90;;;;;;;3.68;100.00;101697.59;4960581;28;20031;-72
2023/04/02 07:03:26;;;;;;;8.13;5.43;;;;;;;3.67;100.00;101705.19;4965338;28;20149;-72
2023/04/02 07:05:51;;;;;;;6.17;5.13;;;;;;;3.63;100.00;101714.31;4954828;28;20077;-72
2023/04/02 07:08:16;;;;;;;9.37;4.83;;;;;;;3.60;100.00;101717.53;4949571;28;20551;-71
2023/04/02 07:10:42;;;;;;;7.53;4.27;;;;;;;3.56;100.00;101733.47;4953520;28;20509;-73
2023/04/02 07:13:19;;;;;;;8.63;4.90;;;;;;;3.52;100.00;101728.91;4963874;28;20103;-72
2023/04/02 07:15:48;;;;;;;10.03;4.93;;;;;;;3.56;100.00;101751.41;4959716;28;20042;-72
2023/04/02 07:18:22;;;;;;;4.53;3.73;;;;;;;3.60;100.00;101756.00;4967423;28;20069;-72
2023/04/02 07:20:47;;;;;;;6.37;4.00;;;;;;;3.62;100.00;101752.66;4960497;28;20035;-72
2023/04/02 07:23:13;;;;;;;6.77;3.90;;;;;;;3.57;100.00;101758.34;4964998;28;20035;-72
2023/04/02 07:25:38;;;;;;;5.97;3.83;;;;;;;3.50;100.00;101763.78;4967407;28;20483;-72
2023/04/02 07:28:04;;;;;;;9.93;3.90;;;;;;;3.46;100.00;101765.22;4957963;28;20137;-72
2023/04/02 07:30:29;;;;;;;5.87;3.40;;;;;;;3.43;100.00;101774.31;4968950;28;20038;-72
2023/04/02 07:32:54;;;;;;;5.43;3.47;;;;;;;3.40;100.00;101780.09;4975670;28;20073;-71
2023/04/02 07:35:20;;;;;;;6.40;3.80;;;;;;;3.38;100.00;101783.34;4961819;28;20090;-72
2023/04/02 07:37:45;;;;;;;5.00;3.40;;;;;;;3.38;100.00;101789.38;4954403;28;20039;-72
2023/04/02 07:40:17;;;;;;;5.50;3.23;;;;;;;3.34;100.00;101795.94;4955822;28;20069;-72
2023/04/02 07:42:42;;;;;;;4.88;2.58;;;;;;;3.35;100.00;101796.78;4960011;28;20454;-71
2023/04/02 07:45:08;;;;;;;4.60;2.97;;;;;;;3.31;100.00;101798.22;4981931;28;20022;-71
2023/04/02 07:47:33;;;;;;;5.63;3.00;;;;;;;3.31;100.00;101803.34;4971418;28;20110;-72
2023/04/02 07:49:58;;;;;;;5.70;3.67;;;;;;;3.31;100.00;101805.03;4981445;28;20073;-73
2023/04/02 07:52:24;;;;;;;6.03;2.83;;;;;;;3.31;100.00;101805.91;4970606;28;20034;-71
2023/04/02 07:54:49;;;;;;;6.97;2.60;;;;;;;3.32;100.00;101806.81;4980277;28;20618;-72
2023/04/02 07:57:15;;;;;;;4.77;2.37;;;;;;;3.32;100.00;101811.94;4969289;28;20113;-71
2023/04/02 07:59:40;;;;;;;3.53;2.43;;;;;;;3.34;100.00;101816.44;4977311;28;20411;-71
2023/04/02 08:02:05;;;;;;;3.93;2.30;;;;;;;3.38;100.00;101824.34;4961218;28;20369;-71
2023/04/02 08:04:31;;;;;;;6.37;2.87;;;;;;;3.40;100.00;101825.34;4957977;28;20023;-72
2023/04/02 08:06:56;;;;;;;6.20;2.53;;;;;;;3.41;100.00;101834.81;4963349;28;20115;-71
2023/04/02 08:09:21;;;;;;;3.70;2.23;;;;;;;3.39;100.00;101833.81;4980892;28;20034;-72
2023/04/02 08:11:46;;;;;;;4.30;2.43;;;;;;;3.43;100.00;101840.97;4958378;28;20483;-72
2023/04/02 08:14:12;;;;;;;6.13;2.10;;;;;;;3.45;100.00;101845.41;4956624;28;20055;-72
2023/04/02 08:16:53;;;;;;;7.07;2.40;;;;;;;3.47;100.00;101851.56;4954724;28;20039;-73
2023/04/02 08:19:18;;;;;;;4.60;2.40;;;;;;;3.49;100.00;101856.78;4965027;28;20097;-73
2023/04/02 08:21:44;;;;;;;3.90;2.20;;;;;;;3.51;100.00;101852.69;4962806;28;20372;-71
2023/04/02 08:24:10;;;;;;;3.43;1.97;;;;;;;3.46;100.00;101864.25;4966414;28;20015;-72
2023/04/02 08:26:36;;;;;;;3.97;2.10;;;;;;;3.44;100.00;101874.41;4955834;28;20538;-72
2023/04/02 08:29:01;;;;;;;6.90;2.27;;;;;;;3.49;100.00;101874.75;4954277;28;20105;-72
2023/04/02 08:31:26;;;;;;;3.83;2.67;;;;;;;3.54;100.00;101881.16;4958037;28;20038;-72
2023/04/02 08:33:53;;;;;;;3.97;2.47;;;;;;;3.58;100.00;101892.53;4958157;28;20137;-72
2023/04/02 08:36:23;;;;;;;5.23;2.27;;;;;;;3.63;100.00;101887.75;4966835;28;20022;-71
2023/04/02 08:38:48;;;;;;;5.07;2.28;;;;;;;3.60;100.00;101893.53;4952912;28;20042;-72
2023/04/02 08:41:22;;;;;;;7.80;2.40;;;;;;;3.63;100.00;101906.59;4954411;28;20118;-71
2023/04/02 08:44:08;;;;;;;3.80;2.27;;;;;;;3.64;100.00;101907.47;4957289;28;20035;-73
2023/04/02 08:46:46;;;;;;;3.67;2.43;;;;;;;3.68;100.00;101914.63;4963286;28;20042;-72
2023/04/02 08:49:30;;;;;;;3.57;2.00;;;;;;;3.74;100.00;101916.78;4952864;28;20027;-71
2023/04/02 08:51:56;;;;;;;3.23;2.00;;;;;;;3.76;100.00;101918.66;4962897;28;20490;-71
2023/04/02 08:54:27;;;;;;;5.23;2.37;;;;;;;3.72;100.00;101930.38;4975729;28;20037;-71
2023/04/02 08:57:02;;;;;;;3.33;2.03;;;;;;;3.75;100.00;101932.28;4956994;28;20106;-71
2023/04/02 08:59:34;;;;;;;4.40;1.93;;;;;;;3.77;100.00;101938.44;4965350;28;20030;-71
2023/04/02 09:02:21;;;;;;;4.13;2.00;;;;;;;3.76;100.00;101941.75;4960648;28;20041;-72
2023/04/02 09:04:47;;;;;;;4.60;2.30;;;;;;;3.77;100.00;101946.13;4964221;28;20035;-71
2023/04/02 09:07:15;;;;;;;3.13;1.73;;;;;;;3.81;100.00;101957.50;4963058;28;20073;-71
2023/04/02 09:09:41;;;;;;;4.07;1.80;;;;;;;3.83;100.00;101958.53;4956665;28;20428;-72
2023/04/02 09:12:17;;;;;;;3.67;1.90;;;;;;;3.83;100.00;101961.97;4966221;28;20031;-71
2023/04/02 09:14:54;;;;;;;5.70;1.80;;;;;;;3.84;100.00;101968.91;4968193;28;20559;-72
2023/04/02 09:17:22;;;;;;;2.87;1.50;;;;;;;3.83;100.00;101966.22;4963607;28;20035;-72
2023/04/02 09:20:16;;;;;;;3.13;1.93;;;;;;;3.87;100.00;101969.94;4955177;28;20399;-71
2023/04/02 09:22:45;;;;;;;2.30;1.50;;;;;;;3.89;100.00;101976.94;4965182;28;20046;-71
2023/04/02 09:25:17;;;;;;;5.27;1.70;;;;;;;3.93;100.00;101984.13;4964425;28;20050;-71
2023/04/02 09:27:47;;;;;;;5.30;1.87;;;;;;;3.98;100.00;101992.16;4982897;28;20396;-73
2023/04/02 09:30:28;;;;;;;2.70;1.80;;;;;;;3.97;100.00;101998.06;4964373;28;20023;-71
2023/04/02 09:33:07;;;;;;;2.90;1.67;;;;;;;3.95;100.00;102004.75;4958095;28;20042;-72
2023/04/02 09:35:53;;;;;;;4.10;1.70;;;;;;;3.94;100.00;102005.53;4956892;28;20022;-72
2023/04/02 09:38:18;;;;;;;3.43;1.90;;;;;;;3.97;100.00;102013.47;4963287;28;20113;-72
2023/04/02 09:40:55;;;;;;;3.83;2.00;;;;;;;3.96;100.00;102019.34;4968171;28;20129;-72
2023/04/02 09:43:22;;;;;;;2.37;1.57;;;;;;;3.99;100.00;102024.75;4960280;28;20290;-73
2023/04/02 09:46:04;;;;;;;7.37;3.90;;;;;;;3.94;100.00;102026.94;4967790;28;20227;-72
2023/04/02 09:48:34;;;;;;;10.03;2.90;;;;;;;3.90;100.00;102030.06;4964465;28;20045;-72
2023/04/02 09:51:06;;;;;;;4.47;1.70;;;;;;;3.88;100.00;102035.81;4965117;28;20039;-73
2023/04/02 09:53:37;;;;;;;5.00;1.83;;;;;;;3.86;100.00;102039.94;4959966;28;20069;-72
2023/04/02 09:56:13;;;;;;;1.83;1.73;;;;;;;3.88;100.00;102035.81;4973391;28;20117;-72
2023/04/02 09:58:40;;;;;;;4.50;1.93;;;;;;;3.95;100.00;102045.78;4967435;28;20033;-72
2023/04/02 10:01:28;;;;;;;4.00;2.13;;;;;;;3.92;100.00;102054.13;4972483;28;20031;-71
2023/04/02 10:03:54;;;;;;;3.73;1.60;;;;;;;3.92;100.00;102060.94;4961261;28;20466;-72
2023/04/02 10:06:19;;;;;;;2.37;1.53;;;;;;;3.94;100.00;102055.16;4968422;28;20436;-72
2023/04/02 10:08:45;;;;;;;2.37;1.60;;;;;;;3.98;100.00;102069.09;4969671;28;20387;-72
2023/04/02 10:11:18;;;;;;;3.10;1.93;;;;;;;3.99;100.00;102068.34;4964779;28;20041;-72
2023/04/02 10:14:05;;;;;;;2.60;2.00;;;;;;;3.96;100.00;102065.53;4970141;28;20066;-72
2023/04/02 10:16:39;;;;;;;6.93;2.20;;;;;;;3.93;100.00;102071.31;4961009;28;20480;-72
2023/04/02 10:19:29;;;;;;;3.70;1.60;;;;;;;3.97;100.00;102069.91;4959627;28;20596;-72
2023/04/02 10:21:56;;;;;;;4.53;2.07;;;;;;;3.97;100.00;102072.47;4959475;28;20121;-72
2023/04/02 10:24:22;;;;;;;5.77;1.90;;;;;;;4.01;100.00;102084.72;4953005;28;20383;-72
2023/04/02 10:27:02;;;;;;;4.47;1.80;;;;;;;4.01;100.00;102079.59;4969923;28;20039;-72
2023/04/02 10:29:40;;;;;;;4.18;2.03;;;;;;;4.07;100.00;102080.09;4971344;28;20114;-73
2023/04/02 10:32:28;;;;;;;2.30;1.70;;;;;;;4.10;100.00;102082.03;4971407;28;20471;-72
2023/04/02 10:35:14;;;;;;;3.63;2.10;;;;;;;4.15;100.00;102088.41;4961109;28;20122;-72
2023/04/02 10:37:46;;;;;;;2.33;1.50;;;;;;;4.19;100.00;102094.69;4973430;28;20034;-71
2023/04/02 10:40:25;;;;;;;3.40;1.67;;;;;;;4.18;100.00;102100.56;4956766;28;20022;-72
2023/04/02 10:43:16;;;;;;;2.73;1.80;;;;;;;4.21;100.00;102108.50;4958715;28;20071;-72
2023/04/02 10:45:48;;;;;;;2.30;1.40;;;;;;;4.15;100.00;102118.31;4956568;28;20037;-72
2023/04/02 10:48:41;;;;;;;2.83;1.30;;;;;;;4.19;100.00;102120.34;4963101;28;20030;-73
2023/04/02 10:51:16;;;;;;;6.00;1.83;;;;;;;4.21;100.00;102121.34;4960867;28;20033;-72
2023/04/02 10:54:22;;;;;;;4.00;1.60;;;;;;;4.25;100.00;102125.94;4959637;28;20033;-72
2023/04/02 10:56:51;;;;;;;4.90;1.90;;;;;;;4.26;100.00;102126.84;4957643;28;20131;-72
2023/04/02 10:59:22;;;;;;;5.27;2.00;;;;;;;4.23;100.00;102130.06;4974852;28;20041;-73
2023/04/02 11:01:50;;;;;;;3.17;1.88;;;;;;;4.25;100.00;102125.03;4969500;28;20480;-72
2023/04/02 11:04:22;;;;;;;4.43;2.07;;;;;;;4.27;100.00;102128.63;4968332;28;20060;-73
2023/04/02 11:06:56;;;;;;;4.53;1.83;;;;;;;4.33;100.00;102131.69;4965592;28;20031;-71
2023/04/02 11:09:28;;;;;;;3.13;1.90;;;;;;;4.47;100.00;102132.75;4964942;28;20023;-72
2023/04/02 11:11:56;;;;;;;6.93;2.30;;;;;;;4.53;100.00;102133.22;4968963;28;20468;-73
2023/04/02 11:14:29;;;;;;;3.40;1.85;;;;;;;4.62;100.00;102145.00;4983371;28;20060;-73
2023/04/02 11:16:59;;;;;;;2.23;1.40;;;;;;;4.68;100.00;102153.16;4970124;28;20046;-72
2023/04/02 11:19:28;;;;;;;2.50;1.60;;;;;;;4.71;100.00;102160.22;4964936;28;20038;-72
2023/04/02 11:21:58;;;;;;;3.92;1.40;;;;;;;4.72;100.00;102144.03;4959020;28;20035;-73
2023/04/02 11:24:31;;;;;;;4.60;2.30;;;;;;;4.77;100.00;102161.59;4984738;28;20034;-72
2023/04/02 11:27:06;;;;;;;2.60;1.48;;;;;;;4.83;100.00;102170.53;4980123;28;20490;-73
2023/04/02 11:29:34;;;;;;;3.20;1.30;;;;;;;4.88;100.00;102171.78;4975392;28;20038;-72
2023/04/02 11:32:11;;;;;;;3.55;1.70;;;;;;;4.94;100.00;102177.41;4972240;28;20471;-72
2023/04/02 11:34:39;;;;;;;4.10;1.45;;;;;;;4.99;100.00;102176.06;4969273;28;20480;-72
2023/04/02 11:37:09;;;;;;;2.20;1.23;;;;;;;4.98;100.00;102182.00;4969304;28;20018;-72
2023/04/02 11:39:52;;;;;;;2.75;1.45;;;;;;;5.09;100.00;102177.66;4969389;28;20550;-72
2023/04/02 11:42:18;;;;;;;1.83;1.40;;;;;;;5.20;100.00;102187.88;4964708;28;20488;-72
2023/04/02 11:44:43;;;;;;;2.60;1.40;;;;;;;5.21;100.00;102193.13;4967429;28;20037;-71
2023/04/02 11:47:29;;;;;;;4.15;1.35;;;;;;;5.16;100.00;102191.91;4967869;28;20446;-72
2023/04/02 11:49:54;;;;;;;2.15;0.90;;;;;;;5.01;100.00;102189.94;4972978;28;20058;-73
2023/04/02 11:52:29;;;;;;;2.58;1.13;;;;;;;5.10;100.00;102196.56;4978371;28;20100;-72